Coalby, Colorado
Current Conditions -  °F | °C
As of 1:55 AM on Thursday 23 Oct 2014 (Local Time) from KAJZ Reporting Station
Clear Clear  
Wind Chill: 42°   Ceiling: Unl
Heat Index: 45°   Visibility: 10mi
Dew Point: 34°   Wind: 6mph
Humidity: 65%   Direction: 70°ENE
Pressure: 30.23"   Gusts: NA
Location:  38.9793°N, 107.894°W
Report Text: KAJZ 230755Z AUTO 07005KT 10SM CLR 07/01 A3023 RMK AO2 T00710010
Loading
Personal Weather Stations






























Interactive Weather Map
Tropical Storm Tracking
New forecast layout! Learn more

10-Day Weather Forecast

Advertisements
Track Severe Weather on mobile